Canhotinho, Brazil
Current Conditions -  °F | °C
As of 7:00 AM on Wednesday 26 Nov 2014 (Local Time) from SBMO Reporting Station
Scattered Clouds Scattered Clouds  
Wind Chill: 79°   Ceiling: Unl
Heat Index: 82°   Visibility: 6mi
Dew Point: 75°   Wind: 8mph
Humidity: 89%   Direction: 70°ENE
Pressure: 29.94"   Gusts: NA
Location:  8.88°S, 36.19°W
Report Text: SBMO 261000Z 07007KT 9999 SCT025 26/24 Q1014
Loading
Personal Weather Stations






























Interactive Weather Map New forecast layout! Learn more

10-Day Weather Forecast

Advertisements
Track Severe Weather on mobile